Flight Track Log - Related Links

Times and Time Zones

All times are in EDT time to prevent confusion due to time zone crossing. See the SKW4702 flight status page for this flight to view local times or setup timezone preferences in your user account.

Time Position Orientation Groundspeed Altitude Reporting Facility
EDT Latitude Longitude Course Direction KTS MPH feet Rate Location/Type
Sun 04:19:06 PM 33.9500 -118.4500 338° Northwest 164 189 1,500  Level Southern California TRACON
Sun 04:20:35 PM 33.9397 -118.5431 262° West 222 255 4,500 2,026 Climbing Los Angeles Center
Sun 04:21:00 PM 34.0787 -118.6671 34° Northeast  Level FlightAware Approximate
Sun 04:21:37 PM 33.9361 -118.6319 267° West 265 305 6,600  Level Los Angeles Center
Sun 04:22:00 PM 34.1981 -118.6010 22° Northeast  Level FlightAware Approximate
Sun 04:22:39 PM 33.9994 -118.6975 319° Northwest 284 327 9,000  Level Los Angeles Center
Sun 04:23:00 PM 34.3229 -118.6229 320° Northwest  Level FlightAware Approximate
Sun 04:23:41 PM 34.0742 -118.6844 North 298 343 9,000  Level Los Angeles Center
Sun 04:24:00 PM 34.4448 -118.6807 338° Northwest  Level FlightAware Approximate
Sun 04:24:43 PM 34.1528 -118.6444 23° Northeast 294 338 9,600  Level Los Angeles Center
Sun 04:25:45 PM 34.2192 -118.6508 355° North 303 349 11,500 2,304 Climbing Los Angeles Center
Sun 04:26:48 PM 34.3244 -118.6628 355° North 316 364 14,400 1,883 Climbing Los Angeles Center
Sun 04:28:02 PM 34.4214 -118.6733 355° North 354 407 15,800 1,235 Climbing Los Angeles Center
Sun 04:29:04 PM 34.5444 -118.7314 339° North 401 461 17,200 1,452 Climbing Los Angeles Center
Sun 04:30:06 PM 34.6536 -118.7864 337° Northwest 422 486 18,800 1,824 Climbing Los Angeles Center
Sun 04:31:09 PM 34.7833 -118.8522 337° Northwest 421 484 21,000 1,872 Climbing Los Angeles Center
Sun 04:32:11 PM 34.8967 -118.8939 343° North 426 490 22,700 1,452 Climbing Los Angeles Center
Sun 04:33:13 PM 35.0200 -118.9350 345° North 429 494 24,000 1,059 Climbing Los Angeles Center
Sun 04:34:27 PM 35.1389 -118.9756 344° North 441 507 25,100 1,015 Climbing Los Angeles Center
Sun 04:35:29 PM 35.2853 -119.0383 341° North 464 534 26,300 912 Climbing Los Angeles Center
Sun 04:36:32 PM 35.4053 -119.0950 339° North 463 533 27,000 307 Climbing Los Angeles Center
Sun 04:37:46 PM 35.5303 -119.1542 339° North 477 549 27,000 750 Level Los Angeles Center
Sun 04:38:48 PM 35.7064 -119.2403 338° Northwest 486 559 28,700 1,306 Climbing Los Angeles Center
Sun 04:39:50 PM 35.8303 -119.2986 339° North 480 552 29,700 919 Climbing Los Angeles Center
Sun 04:40:52 PM 35.9539 -119.3592 338° Northwest 482 555 30,600 850 Climbing Los Angeles Center
Sun 04:41:43 PM 36.0539 -119.4056 339° North 487 560 31,300 796 Climbing Oakland Center
Sun 04:42:45 PM 36.1789 -119.4667 338° Northwest 488 562 32,100 829 Climbing Oakland Center
Sun 04:43:46 PM 36.3314 -119.5464 337° Northwest 497 572 33,000 829 Climbing Oakland Center
Sun 04:44:48 PM 36.4494 -119.6300 330° Northwest 491 565 33,800 488 Climbing Oakland Center
Sun 04:45:49 PM 36.5686 -119.7172 330° Northwest 496 571 34,000 98 Climbing Oakland Center
Sun 04:46:51 PM 36.6897 -119.8050 330° Northwest 504 580 34,000 -48 Level Oakland Center
Sun 04:47:53 PM 36.8097 -119.8925 330° Northwest 501 577 33,900 -146 Descending Oakland Center
Sun 04:48:54 PM 36.9272 -119.9769 330° Northwest 492 566 33,700 -878 Descending Oakland Center
Sun 04:49:56 PM 37.0464 -120.0669 329° Northwest 500 575 32,100 -1,805 Descending Oakland Center
Sun 04:50:57 PM 37.1797 -120.1633 330° Northwest 496 571 30,000 -2,195 Descending Oakland Center
Sun 04:51:59 PM 37.2950 -120.2517 329° Northwest 486 559 27,600 -2,683 Descending Oakland Center
Sun 04:53:00 PM 37.4058 -120.3325 330° Northwest 464 534 24,500 -1,878 Descending Oakland Center
Sun 04:53:54 PM 37.5000 -120.4333 320° Northwest 422 486 24,000 -789 Descending Northern Cal TRACON
Sun 04:54:54 PM 37.6000 -120.5167 327° Northwest 441 507 23,000 -1,150 Descending Northern Cal TRACON
Sun 04:55:54 PM 37.7000 -120.6167 322° Northwest 448 516 21,700 -1,250 Descending Northern Cal TRACON
Sun 04:56:54 PM 37.8000 -120.7167 322° Northwest 449 517 20,500 -1,190 Descending Northern Cal TRACON
Sun 04:58:00 PM 37.9000 -120.8167 322° Northwest 430 495 19,200 -1,100 Descending Northern Cal TRACON
Sun 04:58:54 PM 37.9833 -120.9000 322° Northwest 427 491 18,300 -1,105 Descending Northern Cal TRACON
Sun 04:59:54 PM 38.0667 -121.0000 317° Northwest 408 470 17,100 -1,200 Descending Northern Cal TRACON
Sun 05:00:54 PM 38.1500 -121.1000 317° Northwest 389 448 15,900 -1,250 Descending Northern Cal TRACON
Sun 05:01:54 PM 38.2167 -121.2000 310° West 385 443 14,600 -1,300 Descending Northern Cal TRACON
Sun 05:02:54 PM 38.2833 -121.3167 306° West 387 445 13,300 -1,500 Descending Northern Cal TRACON
Sun 05:03:54 PM 38.3500 -121.4000 316° Northwest 345 397 11,600 -1,550 Descending Northern Cal TRACON
Sun 05:04:54 PM 38.4000 -121.4833 307° West 316 364 10,200 -1,400 Descending Northern Cal TRACON
Sun 05:05:54 PM 38.4667 -121.5667 316° Northwest 322 371 8,800 -1,421 Descending Northern Cal TRACON
Sun 05:06:48 PM 38.5333 -121.6167 330° Northwest 304 350 7,500 -1,467 Descending Northern Cal TRACON
Sun 05:07:24 PM 38.5681 -121.6450 327° Northwest 300 345 6,600 -1,485 Descending Oakland Center
Sun 05:08:25 PM 38.6400 -121.6881 335° Northwest 292 336 5,100 -1,475 Descending Oakland Center

Login

Don't have an account? Register now (free) for customized features, flight alerts, and more!